Time;durP1;ratioP1;P1;durP2;ratioP2;P2;SDS_P1;SDS_P2;PMS_P1;PMS_P2;Temp;Humidity;BMP_temperature;BMP_pressure;BME280_temperature;BME280_humidity;BME280_pressure;Samples;Min_cycle;Max_cycle;Signal;HPM_P1;HPM_P2
2022/09/21 00:01:25;;;;;;;2.63;1.65;;;;;;;11.21;89.23;101810.94;5051064;28;20033;-69
2022/09/21 00:03:55;;;;;;;4.38;1.88;;;;;;;11.07;89.73;101805.81;5030088;28;20478;-70
2022/09/21 00:06:22;;;;;;;5.03;2.03;;;;;;;10.99;90.14;101800.50;5051728;28;20029;-71
2022/09/21 00:08:49;;;;;;;2.28;1.50;;;;;;;11.04;90.01;101808.38;5040354;28;20292;-70
2022/09/21 00:11:20;;;;;;;2.78;2.13;;;;;;;10.99;89.95;101803.19;5052419;28;20087;-70
2022/09/21 00:13:46;;;;;;;4.03;1.30;;;;;;;10.98;90.27;101807.78;5054112;28;20140;-71
2022/09/21 00:16:13;;;;;;;4.15;1.80;;;;;;;10.95;90.26;101818.44;5040352;28;20108;-71
2022/09/21 00:18:39;;;;;;;3.88;1.70;;;;;;;11.03;89.98;101812.22;5021343;28;20103;-67
2022/09/21 00:21:09;;;;;;;2.20;1.45;;;;;;;10.89;90.70;101817.84;5042160;28;20037;-68
2022/09/21 00:23:36;;;;;;;3.93;1.40;;;;;;;10.83;90.65;101821.84;5047355;28;20080;-68
2022/09/21 00:26:19;;;;;;;2.88;1.65;;;;;;;10.78;91.40;101814.75;5019365;28;20029;-68
2022/09/21 00:28:45;;;;;;;1.98;1.65;;;;;;;10.82;91.24;101822.94;5033200;28;20458;-68
2022/09/21 00:31:13;;;;;;;2.33;1.58;;;;;;;10.73;91.92;101827.63;5051886;28;20060;-68
2022/09/21 00:33:40;;;;;;;1.52;1.20;;;;;;;10.76;91.35;101824.28;5042217;28;20049;-69
2022/09/21 00:36:16;;;;;;;1.65;1.40;;;;;;;10.74;91.80;101827.28;5049523;28;20065;-69
2022/09/21 00:38:44;;;;;;;2.13;1.45;;;;;;;10.77;91.08;101813.19;5056493;28;20035;-70
2022/09/21 00:41:12;;;;;;;2.85;1.77;;;;;;;10.80;91.66;101817.91;5051462;28;20427;-69
2022/09/21 00:43:46;;;;;;;4.43;1.70;;;;;;;10.83;91.26;101817.25;5012547;28;20033;-69
2022/09/21 00:46:26;;;;;;;3.28;1.60;;;;;;;10.83;90.82;101816.47;5031058;28;20405;-68
2022/09/21 00:48:52;;;;;;;1.52;1.40;;;;;;;10.71;91.27;101814.47;5042883;28;20094;-68
2022/09/21 00:51:18;;;;;;;3.58;1.77;;;;;;;10.68;91.25;101822.44;5052798;28;20033;-67
2022/09/21 00:53:45;;;;;;;3.97;1.83;;;;;;;10.66;91.84;101822.75;5038243;28;20213;-68
2022/09/21 00:56:11;;;;;;;3.40;1.73;;;;;;;10.71;92.11;101819.06;5028372;28;20123;-72
2022/09/21 00:58:46;;;;;;;3.25;1.63;;;;;;;10.85;91.55;101822.31;5046685;28;20033;-68
2022/09/21 01:01:16;;;;;;;3.00;1.60;;;;;;;10.84;90.73;101824.22;5049382;28;20116;-67
2022/09/21 01:03:44;;;;;;;2.10;1.52;;;;;;;10.78;90.68;101830.91;5050776;28;20406;-68
2022/09/21 01:06:12;;;;;;;4.10;1.60;;;;;;;10.77;91.04;101818.56;5044453;28;20044;-68
2022/09/21 01:08:39;;;;;;;2.67;1.95;;;;;;;10.72;90.64;101832.22;5019485;28;20083;-68
2022/09/21 01:11:14;;;;;;;1.73;1.38;;;;;;;10.77;90.65;101831.25;5035619;28;20036;-68
2022/09/21 01:13:52;;;;;;;2.85;1.85;;;;;;;10.72;90.73;101831.44;5041794;28;20058;-67
2022/09/21 01:16:22;;;;;;;1.90;1.50;;;;;;;10.66;90.49;101833.53;5028721;28;20044;-68
2022/09/21 01:19:10;;;;;;;4.70;1.85;;;;;;;10.66;91.27;101841.63;5024983;28;20063;-70
2022/09/21 01:21:54;;;;;;;3.25;1.70;;;;;;;10.62;90.88;101831.81;5029831;28;20111;-70
2022/09/21 01:24:20;;;;;;;3.30;1.20;;;;;;;10.56;91.17;101836.59;5049508;28;20115;-71
2022/09/21 01:27:00;;;;;;;5.03;2.22;;;;;;;10.61;90.89;101833.72;5044754;28;20123;-71
2022/09/21 01:29:31;;;;;;;1.60;1.50;;;;;;;10.63;90.76;101834.16;5051083;28;20470;-70
2022/09/21 01:31:59;;;;;;;1.65;1.30;;;;;;;10.57;90.65;101832.78;5047508;28;20302;-70
2022/09/21 01:34:32;;;;;;;3.53;1.67;;;;;;;10.43;91.15;101842.97;5040504;28;20026;-71
2022/09/21 01:37:05;;;;;;;1.23;1.13;;;;;;;10.43;91.83;101844.91;5038118;28;20025;-70
2022/09/21 01:39:33;;;;;;;2.03;1.45;;;;;;;10.37;91.54;101841.59;5042293;28;20029;-70
2022/09/21 01:42:01;;;;;;;3.38;1.75;;;;;;;10.35;91.74;101840.34;5040378;28;20455;-70
2022/09/21 01:44:32;;;;;;;3.00;1.70;;;;;;;10.40;91.45;101845.53;5038220;28;20032;-70
2022/09/21 01:47:01;;;;;;;2.60;1.75;;;;;;;10.35;91.66;101849.22;5045626;28;20048;-71
2022/09/21 01:49:35;;;;;;;3.55;1.83;;;;;;;10.31;91.76;101844.78;5041617;28;20037;-70
2022/09/21 01:52:10;;;;;;;1.70;1.55;;;;;;;10.41;91.69;101847.94;5024373;28;20417;-71
2022/09/21 01:54:45;;;;;;;1.80;1.50;;;;;;;10.40;92.01;101846.34;5046662;28;20044;-70
2022/09/21 01:57:21;;;;;;;5.53;2.20;;;;;;;10.37;92.15;101841.59;5013384;28;20036;-70
2022/09/21 01:59:59;;;;;;;3.28;1.45;;;;;;;10.43;92.14;101842.97;5030217;28;20414;-70
2022/09/21 02:02:54;;;;;;;4.15;2.20;;;;;;;10.49;91.83;101843.59;5031206;28;20120;-70
2022/09/21 02:05:24;;;;;;;3.42;1.63;;;;;;;10.51;91.85;101839.47;5022120;28;20035;-71
2022/09/21 02:07:51;;;;;;;4.07;1.58;;;;;;;10.63;92.10;101853.03;5039194;28;20489;-70
2022/09/21 02:10:22;;;;;;;2.03;1.50;;;;;;;10.68;91.35;101844.75;5039593;28;20120;-70
2022/09/21 02:12:51;;;;;;;3.40;2.00;;;;;;;10.61;91.29;101857.16;5046586;28;20044;-70
2022/09/21 02:15:23;;;;;;;2.45;1.60;;;;;;;10.51;91.52;101850.22;5025109;28;20033;-70
2022/09/21 02:18:05;;;;;;;1.70;1.40;;;;;;;10.45;91.37;101848.81;5045637;28;20036;-70
2022/09/21 02:20:45;;;;;;;1.73;1.60;;;;;;;10.40;91.93;101849.03;5043541;28;20037;-70
2022/09/21 02:23:23;;;;;;;4.57;1.70;;;;;;;10.34;91.97;101852.22;5021233;28;20021;-70
2022/09/21 02:25:59;;;;;;;2.50;1.55;;;;;;;10.19;91.99;101847.38;5046481;28;20033;-70
2022/09/21 02:28:42;;;;;;;3.55;1.65;;;;;;;10.47;90.55;101848.53;5051607;28;20052;-70
2022/09/21 02:32:00;;;;;;;3.10;1.30;;;;;;;10.33;91.03;101851.44;5030973;28;20029;-70
2022/09/21 02:35:07;;;;;;;1.92;1.30;;;;;;;10.16;91.54;101845.31;4991518;28;20049;-70
2022/09/21 02:37:42;;;;;;;2.35;1.67;;;;;;;10.11;91.89;101843.59;5042668;28;20135;-70
2022/09/21 02:40:21;;;;;;;2.92;1.35;;;;;;;10.18;91.41;101849.25;5040228;28;20047;-69
2022/09/21 02:42:52;;;;;;;3.25;1.25;;;;;;;10.18;91.15;101843.88;5027128;28;20127;-69
2022/09/21 02:45:24;;;;;;;2.40;1.50;;;;;;;10.06;91.65;101851.81;5042673;28;20086;-68
2022/09/21 02:47:58;;;;;;;3.03;1.73;;;;;;;9.90;92.07;101850.75;5024534;28;20060;-70
2022/09/21 02:50:32;;;;;;;2.47;1.52;;;;;;;9.90;92.14;101839.97;5065091;28;20082;-68
2022/09/21 02:53:00;;;;;;;1.63;1.25;;;;;;;10.06;92.47;101846.44;5048639;28;20025;-67
2022/09/21 02:55:27;;;;;;;1.42;1.17;;;;;;;10.10;91.69;101841.22;5025272;28;20044;-71
2022/09/21 02:57:54;;;;;;;2.60;1.55;;;;;;;10.11;91.12;101854.34;5035821;28;20029;-67
2022/09/21 03:00:20;;;;;;;3.25;1.33;;;;;;;10.08;91.05;101848.81;5037959;28;20509;-67
2022/09/21 03:02:46;;;;;;;4.30;1.70;;;;;;;9.97;91.40;101851.03;5045757;28;20265;-67
2022/09/21 03:05:13;;;;;;;2.22;1.50;;;;;;;9.86;92.12;101852.50;5028976;28;20060;-68
2022/09/21 03:07:39;;;;;;;3.15;1.35;;;;;;;9.78;92.67;101855.97;5019819;28;20043;-68
2022/09/21 03:10:07;;;;;;;6.07;1.65;;;;;;;9.80;92.47;101862.63;5036064;28;20026;-68
2022/09/21 03:12:32;;;;;;;1.95;1.17;;;;;;;9.79;92.69;101854.88;5041633;28;20083;-70
2022/09/21 03:14:58;;;;;;;3.13;1.80;;;;;;;9.81;92.76;101861.50;5042676;28;20068;-69
2022/09/21 03:17:24;;;;;;;2.08;1.25;;;;;;;9.79;92.72;101866.41;5041334;28;20457;-71
2022/09/21 03:19:53;;;;;;;7.22;1.45;;;;;;;9.86;92.32;101865.94;5041343;28;20040;-71
2022/09/21 03:22:23;;;;;;;1.25;1.10;;;;;;;9.82;92.50;101867.69;5034890;28;20536;-70
2022/09/21 03:24:49;;;;;;;1.98;1.30;;;;;;;9.73;93.11;101864.22;5031652;28;20492;-71
2022/09/21 03:27:19;;;;;;;2.03;1.42;;;;;;;9.78;93.30;101869.44;5019965;28;20132;-71
2022/09/21 03:29:45;;;;;;;1.23;1.05;;;;;;;9.86;92.68;101872.13;5031767;28;20044;-70
2022/09/21 03:32:12;;;;;;;2.38;1.50;;;;;;;9.88;92.92;101877.97;5047836;28;20029;-71
2022/09/21 03:34:38;;;;;;;5.65;1.80;;;;;;;9.86;92.42;101874.00;5049441;28;20043;-71
2022/09/21 03:37:05;;;;;;;2.97;1.83;;;;;;;9.86;92.73;101880.19;5052189;28;20120;-70
2022/09/21 03:39:30;;;;;;;2.00;1.35;;;;;;;9.80;92.67;101883.34;5017277;28;20048;-67
2022/09/21 03:41:56;;;;;;;2.65;1.85;;;;;;;9.88;92.60;101888.75;5048045;28;20048;-71
2022/09/21 03:44:23;;;;;;;1.85;1.48;;;;;;;9.84;92.96;101878.91;5073577;23;20039;-68
2022/09/21 03:46:52;;;;;;;2.85;1.60;;;;;;;9.82;93.06;101875.75;5039324;28;20048;-66
2022/09/21 03:49:18;;;;;;;1.42;1.33;;;;;;;9.84;93.08;101878.91;5029290;28;20128;-66
2022/09/21 03:51:44;;;;;;;1.40;1.20;;;;;;;9.81;93.44;101879.56;5042082;28;20476;-66
2022/09/21 03:54:10;;;;;;;6.45;2.03;;;;;;;9.84;93.34;101879.72;5034585;28;20120;-66
2022/09/21 03:56:36;;;;;;;2.42;1.48;;;;;;;9.87;93.34;101878.31;5056855;28;20443;-66
2022/09/21 03:59:02;;;;;;;2.35;1.55;;;;;;;9.96;93.02;101874.47;5053030;28;20090;-66
2022/09/21 04:01:27;;;;;;;1.73;1.33;;;;;;;9.95;92.88;101872.09;5052263;28;20064;-67
2022/09/21 04:03:53;;;;;;;1.95;1.40;;;;;;;9.92;93.12;101883.50;5045661;28;20067;-67
2022/09/21 04:06:19;;;;;;;2.63;1.98;;;;;;;9.95;92.98;101875.56;5045076;28;20061;-67
2022/09/21 04:08:44;;;;;;;3.50;2.50;;;;;;;9.90;93.16;101875.75;5034229;28;20037;-67
2022/09/21 04:11:16;;;;;;;2.42;1.77;;;;;;;9.93;93.07;101895.84;5045168;28;20481;-66
2022/09/21 04:13:41;;;;;;;5.35;1.83;;;;;;;9.81;93.18;101882.25;5046606;28;20135;-67
2022/09/21 04:16:08;;;;;;;3.97;1.55;;;;;;;9.75;93.50;101876.25;5051993;28;20100;-67
2022/09/21 04:18:34;;;;;;;2.30;1.40;;;;;;;9.81;93.21;101883.03;5050689;28;20033;-66
2022/09/21 04:21:00;;;;;;;2.20;1.27;;;;;;;9.84;92.80;101879.72;5042349;28;20508;-66
2022/09/21 04:23:26;;;;;;;4.18;1.77;;;;;;;9.73;92.81;101888.44;5045754;28;20032;-66
2022/09/21 04:25:53;;;;;;;2.00;1.58;;;;;;;9.68;93.15;101885.91;5052176;28;20032;-66
2022/09/21 04:28:19;;;;;;;1.98;1.65;;;;;;;9.59;93.41;101882.44;5052717;28;20045;-67
2022/09/21 04:30:44;;;;;;;1.65;1.27;;;;;;;9.45;93.80;101885.28;5052276;28;20175;-67
2022/09/21 04:33:10;;;;;;;2.53;1.90;;;;;;;9.49;94.06;101882.75;5050209;28;20037;-67
2022/09/21 04:35:35;;;;;;;4.40;1.45;;;;;;;9.56;94.15;101896.53;5045646;28;20033;-67
2022/09/21 04:38:00;;;;;;;3.00;2.10;;;;;;;9.56;93.69;101897.28;5053261;28;20034;-66
2022/09/21 04:40:27;;;;;;;2.35;1.70;;;;;;;9.63;93.59;101891.44;5036419;28;20478;-67
2022/09/21 04:42:52;;;;;;;3.35;1.70;;;;;;;9.71;92.81;101883.38;5038392;28;20034;-67
2022/09/21 04:45:19;;;;;;;2.70;1.67;;;;;;;9.77;92.67;101895.56;5035226;28;20048;-66
2022/09/21 04:47:44;;;;;;;3.88;2.17;;;;;;;9.75;92.17;101894.28;5044118;28;20075;-66
2022/09/21 04:50:10;;;;;;;2.20;1.65;;;;;;;9.55;92.79;101893.03;5051661;28;20041;-66
2022/09/21 04:52:35;;;;;;;3.90;1.30;;;;;;;9.47;92.71;101884.97;5033678;28;20035;-67
2022/09/21 04:55:01;;;;;;;3.83;1.60;;;;;;;9.42;93.45;101895.88;5038479;28;20037;-67
2022/09/21 04:57:27;;;;;;;1.67;1.58;;;;;;;9.34;93.53;101896.66;5042313;28;20033;-66
2022/09/21 04:59:52;;;;;;;2.00;1.40;;;;;;;9.50;93.11;101895.09;5044775;28;20035;-66
2022/09/21 05:02:18;;;;;;;2.13;1.48;;;;;;;9.43;93.06;101892.06;5044622;28;20037;-66
2022/09/21 05:04:43;;;;;;;1.98;1.35;;;;;;;9.40;92.99;101890.81;5045867;28;20045;-67
2022/09/21 05:07:08;;;;;;;1.85;1.50;;;;;;;9.34;93.37;101899.34;5048150;28;20051;-66
2022/09/21 05:12:18;;;;;;;1.63;1.50;;;;;;;9.37;93.11;101904.13;5050700;28;20182;-66
2022/09/21 05:14:43;;;;;;;6.50;1.88;;;;;;;9.47;93.05;101901.09;5032740;28;20033;-67
2022/09/21 05:17:11;;;;;;;6.78;1.50;;;;;;;9.56;92.24;101908.06;5048191;28;20037;-66
2022/09/21 05:19:36;;;;;;;1.55;1.20;;;;;;;9.51;91.90;101912.78;5047976;28;20032;-67
2022/09/21 05:22:01;;;;;;;2.90;1.38;;;;;;;9.51;92.28;101910.09;5050980;28;20496;-66
2022/09/21 05:24:27;;;;;;;2.63;1.33;;;;;;;9.40;92.45;101906.16;5041810;28;20037;-66
2022/09/21 05:26:52;;;;;;;2.92;1.77;;;;;;;9.61;91.78;101909.81;5050090;28;20037;-67
2022/09/21 05:29:18;;;;;;;3.70;1.58;;;;;;;9.78;90.87;101902.50;5046106;28;20041;-67
2022/09/21 05:31:46;;;;;;;3.72;1.90;;;;;;;9.71;90.87;101912.19;5046376;28;20056;-66
2022/09/21 05:34:27;;;;;;;2.15;1.77;;;;;;;9.53;91.28;101919.44;5044750;28;20530;-66
2022/09/21 05:37:03;;;;;;;1.60;1.47;;;;;;;9.49;92.11;101913.13;5047310;28;20037;-66
2022/09/21 05:39:29;;;;;;;2.10;1.65;;;;;;;9.60;91.50;101921.69;5047376;28;20032;-66
2022/09/21 05:41:54;;;;;;;4.45;2.30;;;;;;;9.65;91.82;101922.31;5050054;28;20112;-67
2022/09/21 05:44:20;;;;;;;4.13;2.15;;;;;;;9.69;91.46;101923.25;5049608;28;20073;-66
2022/09/21 05:47:02;;;;;;;7.85;2.42;;;;;;;9.56;92.17;101920.72;5050405;28;20036;-66
2022/09/21 05:49:43;;;;;;;2.03;1.75;;;;;;;9.39;93.47;101918.03;5046302;28;20037;-66
2022/09/21 05:52:32;;;;;;;4.47;2.58;;;;;;;9.51;93.34;101910.09;5048674;28;20045;-67
2022/09/21 05:55:25;;;;;;;8.65;3.58;;;;;;;9.47;94.08;101917.22;5040699;28;20524;-66
2022/09/21 05:58:03;;;;;;;8.00;2.58;;;;;;;9.53;94.44;101924.03;5039938;28;20036;-66
2022/09/21 06:00:42;;;;;;;3.60;2.22;;;;;;;9.61;94.55;101921.34;5030442;28;20037;-67
2022/09/21 06:03:20;;;;;;;3.17;2.15;;;;;;;9.69;94.63;101923.25;5027878;28;20029;-66
2022/09/21 06:05:45;;;;;;;10.77;2.47;;;;;;;9.70;94.75;101927.50;5047355;28;20115;-66
2022/09/21 06:08:10;;;;;;;2.67;1.52;;;;;;;9.76;95.32;101923.56;5048066;28;20124;-67
2022/09/21 06:10:36;;;;;;;5.35;2.28;;;;;;;9.83;94.79;101923.84;5043319;28;20040;-67
2022/09/21 06:13:01;;;;;;;6.00;1.90;;;;;;;9.95;94.13;101924.00;5047105;28;20492;-65
2022/09/21 06:15:27;;;;;;;7.22;2.65;;;;;;;9.91;95.30;101919.59;5039356;28;20420;-67
2022/09/21 06:17:53;;;;;;;3.28;2.00;;;;;;;9.95;95.23;101926.69;5028485;28;20120;-66
2022/09/21 06:20:18;;;;;;;3.35;2.45;;;;;;;9.99;95.20;101933.03;5046068;28;20588;-66
2022/09/21 06:22:44;;;;;;;5.55;3.28;;;;;;;10.09;95.50;101931.09;5050887;28;20409;-67
2022/09/21 06:25:09;;;;;;;3.47;2.25;;;;;;;10.18;95.83;101935.38;5048003;28;20116;-67
2022/09/21 06:27:35;;;;;;;7.18;2.75;;;;;;;10.22;95.61;101930.94;5045420;28;20044;-66
2022/09/21 06:30:00;;;;;;;5.57;3.00;;;;;;;10.28;95.89;101943.13;5040017;28;20041;-66
2022/09/21 06:32:26;;;;;;;4.68;3.03;;;;;;;10.39;96.09;101939.00;5032526;28;20036;-67
2022/09/21 06:34:51;;;;;;;5.32;3.30;;;;;;;10.48;95.92;101934.38;5041866;28;20040;-67
2022/09/21 06:37:17;;;;;;;6.45;3.33;;;;;;;10.57;96.07;101937.81;5044153;28;20070;-66
2022/09/21 06:39:42;;;;;;;4.40;2.50;;;;;;;10.64;95.68;101938.13;5033437;28;20033;-67
2022/09/21 06:42:08;;;;;;;5.68;3.13;;;;;;;10.72;96.33;101939.97;5048513;28;20033;-66
2022/09/21 06:44:33;;;;;;;5.13;2.53;;;;;;;10.85;95.91;101938.19;5030866;28;20072;-66
2022/09/21 06:46:59;;;;;;;5.00;3.05;;;;;;;10.95;95.74;101926.25;5030957;28;20039;-66
2022/09/21 06:49:27;;;;;;;6.88;3.38;;;;;;;11.06;95.72;101946.31;5038864;28;20505;-67
2022/09/21 06:51:53;;;;;;;5.47;3.55;;;;;;;11.15;96.26;101933.59;5044155;28;20361;-66
2022/09/21 06:54:19;;;;;;;5.50;3.38;;;;;;;11.27;95.72;101949.84;5024141;28;20029;-66
2022/09/21 06:56:44;;;;;;;6.68;3.60;;;;;;;11.35;95.86;101944.41;5033860;28;20120;-66
2022/09/21 06:59:10;;;;;;;9.48;4.45;;;;;;;11.44;95.54;101944.34;5035225;28;20029;-67
2022/09/21 07:01:35;;;;;;;6.95;3.95;;;;;;;11.55;95.99;101946.31;5039734;28;20033;-66
2022/09/21 07:04:01;;;;;;;5.03;3.45;;;;;;;11.63;95.58;101952.78;5037146;28;20025;-66
2022/09/21 07:06:26;;;;;;;9.20;3.42;;;;;;;11.74;95.73;101949.38;5036186;28;20104;-68
2022/09/21 07:08:52;;;;;;;6.38;3.38;;;;;;;11.85;95.73;101951.66;5036899;28;20048;-66
2022/09/21 07:11:18;;;;;;;6.60;3.53;;;;;;;11.92;95.82;101947.31;5013073;28;20094;-67
2022/09/21 07:13:44;;;;;;;7.75;4.18;;;;;;;12.03;95.83;101955.78;5043758;28;21310;-67
2022/09/21 07:16:11;;;;;;;4.78;3.22;;;;;;;12.12;95.42;101954.56;5031994;28;20083;-66
2022/09/21 07:18:38;;;;;;;9.68;4.00;;;;;;;12.21;96.08;101954.50;5050229;28;20116;-66
2022/09/21 07:21:06;;;;;;;7.05;3.20;;;;;;;12.40;96.35;101962.88;5051489;28;20024;-66
2022/09/21 07:23:32;;;;;;;7.32;3.88;;;;;;;12.65;96.11;101954.50;5044139;28;20043;-67
2022/09/21 07:26:01;;;;;;;10.68;3.33;;;;;;;12.93;96.88;101962.72;5040106;28;20744;-67
2022/09/21 07:28:26;;;;;;;10.38;3.80;;;;;;;13.21;96.20;101960.94;5049077;28;20032;-66
2022/09/21 07:30:52;;;;;;;7.00;4.00;;;;;;;13.49;95.93;101961.00;5028311;28;20045;-67
2022/09/21 07:33:17;;;;;;;7.53;4.15;;;;;;;13.71;96.46;101971.31;5043919;28;20043;-66
2022/09/21 07:35:51;;;;;;;9.00;5.20;;;;;;;13.99;96.03;101971.34;5028828;28;20030;-67
2022/09/21 07:38:16;;;;;;;6.65;3.72;;;;;;;14.23;95.99;101972.00;5052392;28;20095;-67
2022/09/21 07:40:41;;;;;;;8.45;3.97;;;;;;;14.37;94.73;101969.72;5044932;28;20567;-67
2022/09/21 07:43:07;;;;;;;7.90;4.10;;;;;;;14.75;95.08;101971.81;5045322;28;20048;-67
2022/09/21 07:45:33;;;;;;;8.68;3.50;;;;;;;14.93;93.94;101975.78;5050979;28;20497;-67
2022/09/21 07:48:05;;;;;;;6.00;2.85;;;;;;;15.16;92.76;101971.28;5052431;28;20396;-66
2022/09/21 07:50:34;;;;;;;6.50;3.25;;;;;;;15.44;92.53;101976.59;5045100;28;20497;-67
2022/09/21 07:53:00;;;;;;;7.18;3.40;;;;;;;15.68;91.04;101975.56;5029082;28;20029;-67
2022/09/21 07:55:26;;;;;;;4.88;2.75;;;;;;;15.90;89.70;101975.63;5052944;28;20604;-67
2022/09/21 08:00:36;;;;;;;3.50;2.17;;;;;;;16.48;87.21;101975.53;5043746;28;20123;-67
2022/09/21 08:03:02;;;;;;;4.10;2.08;;;;;;;16.58;85.58;101974.97;5052114;28;20109;-67
2022/09/21 08:05:28;;;;;;;2.65;1.90;;;;;;;16.80;84.16;101979.63;5051020;28;20037;-67
2022/09/21 08:07:56;;;;;;;6.40;1.80;;;;;;;17.10;83.09;101980.50;5031434;28;20029;-68
2022/09/21 08:10:24;;;;;;;3.03;1.60;;;;;;;17.33;81.81;101983.16;5036042;28;20485;-67
2022/09/21 08:12:49;;;;;;;2.63;1.45;;;;;;;17.57;81.02;101994.44;5043298;28;20041;-67
2022/09/21 08:15:16;;;;;;;2.65;1.42;;;;;;;17.76;80.14;101985.34;5043630;28;20041;-67
2022/09/21 08:17:42;;;;;;;4.32;1.90;;;;;;;17.80;78.42;101986.97;5044828;28;20025;-67
2022/09/21 08:20:08;;;;;;;3.55;1.83;;;;;;;18.09;78.71;101990.00;5040757;28;20055;-67
2022/09/21 08:22:33;;;;;;;1.73;1.30;;;;;;;18.24;77.88;101997.19;5042940;28;20033;-67
2022/09/21 08:24:58;;;;;;;1.45;0.63;;;;;;;18.49;77.26;102004.50;5048437;28;20166;-68
2022/09/21 08:27:24;;;;;;;2.55;0.90;;;;;;;18.60;74.59;101994.47;5037363;28;20483;-67
2022/09/21 08:29:50;;;;;;;1.48;0.82;;;;;;;18.66;75.52;102003.13;5043453;28;20021;-67
2022/09/21 08:32:16;;;;;;;21.60;9.50;;;;;;;18.73;73.70;102000.44;5043133;28;20402;-67
2022/09/21 08:34:41;;;;;;;3.33;1.98;;;;;;;18.98;72.99;102001.44;5042859;28;20044;-67
2022/09/21 08:37:08;;;;;;;1.88;0.47;;;;;;;18.98;72.16;101997.91;5044700;28;20084;-67
2022/09/21 08:39:33;;;;;;;0.90;0.70;;;;;;;19.10;70.96;102003.88;5030221;28;20096;-67
2022/09/21 08:42:02;;;;;;;0.88;0.60;;;;;;;19.18;70.40;101993.78;5025747;28;20530;-67
2022/09/21 08:45:00;;;;;;;0.68;0.52;;;;;;;19.47;70.56;101998.28;5035880;28;20437;-68
2022/09/21 08:47:56;;;;;;;2.35;0.50;;;;;;;19.45;68.21;102004.09;5026093;28;20143;-67
2022/09/21 08:50:33;;;;;;;6.65;2.70;;;;;;;19.57;68.51;101997.53;5022817;28;20409;-68
2022/09/21 08:53:24;;;;;;;0.73;0.57;;;;;;;19.79;68.27;102000.00;5046120;28;20037;-67
2022/09/21 08:55:50;;;;;;;0.68;0.40;;;;;;;19.47;68.04;101998.28;5044677;28;20087;-68
2022/09/21 08:58:30;;;;;;;0.40;0.30;;;;;;;19.15;67.99;102005.44;5029367;28;20714;-67
2022/09/21 09:01:13;;;;;;;2.80;0.37;;;;;;;18.84;69.83;102001.31;5042258;28;20037;-68
2022/09/21 09:03:49;;;;;;;0.32;0.17;;;;;;;18.42;70.78;102004.44;5046526;28;20028;-68
2022/09/21 09:06:33;;;;;;;0.20;0.20;;;;;;;18.00;72.96;102004.72;5045193;28;20025;-68
2022/09/21 09:09:05;;;;;;;1.48;0.28;;;;;;;17.77;74.39;102009.50;5043253;28;20079;-67
2022/09/21 09:11:43;;;;;;;0.77;0.47;;;;;;;17.53;75.78;102004.50;5045052;28;20048;-67
2022/09/21 09:14:29;;;;;;;1.38;0.30;;;;;;;17.70;74.61;102008.63;5042092;28;20130;-67
2022/09/21 09:17:10;;;;;;;0.57;0.22;;;;;;;18.03;72.41;101997.75;5047179;28;20130;-67
2022/09/21 09:19:59;;;;;;;0.47;0.20;;;;;;;18.46;70.06;101999.81;5029412;28;20059;-67
2022/09/21 09:22:35;;;;;;;0.88;0.30;;;;;;;18.81;69.68;102007.53;5041532;28;20385;-67
2022/09/21 09:25:26;;;;;;;0.57;0.40;;;;;;;19.16;67.59;102007.03;5027274;28;20033;-67
2022/09/21 09:27:54;;;;;;;2.00;0.50;;;;;;;19.62;66.26;102011.66;4987205;28;20038;-67
2022/09/21 09:30:24;;;;;;;0.98;0.57;;;;;;;20.21;65.66;102013.06;4971095;28;20057;-67
2022/09/21 09:32:57;;;;;;;1.17;0.22;;;;;;;20.86;60.66;102014.75;4973354;28;20061;-67
2022/09/21 09:35:49;;;;;;;0.70;0.10;;;;;;;21.53;58.47;102016.25;4969707;28;20046;-67
2022/09/21 09:38:37;;;;;;;0.25;0.20;;;;;;;21.92;57.81;102018.09;4973100;28;20418;-67
2022/09/21 09:41:21;;;;;;;0.43;0.20;;;;;;;22.08;56.09;102010.19;4987437;28;20038;-67
2022/09/21 09:44:05;;;;;;;0.30;0.20;;;;;;;22.00;55.93;102011.41;4964136;28;20038;-67
2022/09/21 09:46:36;;;;;;;1.92;0.85;;;;;;;22.07;55.97;102012.16;4979403;28;20054;-67
2022/09/21 09:49:17;;;;;;;1.65;0.40;;;;;;;21.89;55.18;102007.94;4963749;28;20030;-67
2022/09/21 09:51:42;;;;;;;0.63;0.30;;;;;;;21.73;54.97;102002.88;4987288;28;20057;-67
2022/09/21 09:54:13;;;;;;;0.68;0.45;;;;;;;21.69;55.83;102010.34;4992228;28;20510;-67
2022/09/21 09:56:38;;;;;;;0.50;0.30;;;;;;;21.75;56.54;102007.97;4987758;28;20081;-67
2022/09/21 09:59:09;;;;;;;0.52;0.20;;;;;;;21.79;55.69;102012.25;4985910;28;20043;-68
2022/09/21 10:01:40;;;;;;;0.90;0.35;;;;;;;21.79;55.60;102006.78;4986226;28;20481;-67
2022/09/21 10:04:11;;;;;;;0.28;0.13;;;;;;;21.76;54.91;102006.75;4998023;28;20045;-67
2022/09/21 10:06:38;;;;;;;0.20;0.10;;;;;;;21.72;54.87;102012.28;5020487;28;20037;-67
2022/09/21 10:09:22;;;;;;;0.50;0.15;;;;;;;21.52;53.93;102003.72;5043490;28;20041;-68
2022/09/21 10:11:48;;;;;;;0.20;0.10;;;;;;;21.32;54.58;102004.53;5048528;28;20064;-67
2022/09/21 10:14:21;;;;;;;0.10;0.10;;;;;;;21.05;54.77;102003.41;5050144;28;20095;-67
2022/09/21 10:16:52;;;;;;;0.20;0.10;;;;;;;20.68;53.36;102006.50;5048765;28;20056;-67
2022/09/21 10:19:25;;;;;;;0.20;0.20;;;;;;;20.39;53.07;101996.69;5046947;28;20760;-67
2022/09/21 10:22:02;;;;;;;0.57;0.20;;;;;;;20.23;53.05;102005.25;5046290;28;20142;-67
2022/09/21 10:24:34;;;;;;;0.40;0.20;;;;;;;20.25;52.64;101996.66;5044305;28;20030;-67
2022/09/21 10:27:12;;;;;;;0.20;0.20;;;;;;;20.29;51.92;101995.50;5041983;28;20752;-67
2022/09/21 10:29:46;;;;;;;0.30;0.20;;;;;;;20.27;51.08;101997.84;5023096;28;20033;-67
2022/09/21 10:32:20;;;;;;;0.25;0.20;;;;;;;20.37;51.47;101999.03;5039236;28;20044;-67
2022/09/21 10:35:13;;;;;;;0.22;0.10;;;;;;;20.52;52.18;101995.16;5029248;28;20497;-67
2022/09/21 10:37:45;;;;;;;2.15;0.70;;;;;;;20.58;53.00;101994.38;5046344;28;20404;-67
2022/09/21 10:40:16;;;;;;;0.90;0.32;;;;;;;20.74;53.03;101985.00;5054174;28;20431;-67
2022/09/21 10:42:42;;;;;;;0.10;0.10;;;;;;;20.63;51.02;101988.50;5050062;28;20128;-67
2022/09/21 10:45:16;;;;;;;0.73;0.28;;;;;;;20.78;52.26;101986.56;5045968;28;20115;-67
2022/09/21 10:47:47;;;;;;;0.10;0.05;;;;;;;20.97;53.54;101988.13;5047729;28;20093;-66
2022/09/21 10:50:37;;;;;;;0.93;0.40;;;;;;;21.10;52.70;101981.88;5047930;28;20044;-67
2022/09/21 10:53:08;;;;;;;0.25;0.15;;;;;;;21.25;50.75;101990.88;5044036;28;20041;-67
2022/09/21 10:55:43;;;;;;;;;;;;;;;21.25;49.11;101983.41;5043102;28;20086;-67
2022/09/21 10:58:13;;;;;;;0.13;0.13;;;;;;;21.39;50.19;101982.59;5051728;28;19916;-67
2022/09/21 11:00:45;;;;;;;0.20;0.10;;;;;;;21.37;49.08;101977.50;5047493;28;20082;-67
2022/09/21 11:03:28;;;;;;;0.32;0.20;;;;;;;21.47;49.55;101978.66;5034653;28;20029;-67
2022/09/21 11:05:57;;;;;;;3.92;0.30;;;;;;;21.52;51.04;101979.03;5052713;28;20047;-67
2022/09/21 11:08:29;;;;;;;0.30;0.20;;;;;;;21.51;48.35;101973.94;5042721;28;20036;-67
2022/09/21 11:11:20;;;;;;;0.17;0.17;;;;;;;21.51;50.18;101980.22;5049330;28;20112;-67
2022/09/21 11:13:59;;;;;;;0.20;0.20;;;;;;;21.54;49.84;101973.16;5039960;28;20106;-67
2022/09/21 11:16:35;;;;;;;0.35;0.20;;;;;;;21.65;49.38;101975.84;5056398;28;20051;-67
2022/09/21 11:19:27;;;;;;;0.38;0.38;;;;;;;21.68;49.15;101972.34;5049273;28;20033;-67
2022/09/21 11:21:54;;;;;;;0.50;0.20;;;;;;;21.73;50.15;101975.44;5047355;28;20041;-67
2022/09/21 11:24:58;;;;;;;0.25;0.25;;;;;;;21.74;50.28;101976.22;5027065;28;20032;-67
2022/09/21 11:27:34;;;;;;;0.45;0.20;;;;;;;21.87;50.42;101978.16;5041109;28;20036;-67
2022/09/21 11:30:02;;;;;;;0.25;0.20;;;;;;;21.94;49.29;101980.88;5046015;28;20059;-66
2022/09/21 11:32:37;;;;;;;0.10;0.10;;;;;;;21.96;49.84;101977.72;5039871;28;20040;-67
2022/09/21 11:35:21;;;;;;;0.63;0.32;;;;;;;21.91;50.46;101978.91;5042226;28;20397;-67
2022/09/21 11:37:55;;;;;;;0.08;0.08;;;;;;;21.89;50.52;101988.75;5035210;28;20393;-67
2022/09/21 11:41:05;;;;;;;0.10;0.10;;;;;;;21.70;49.54;101975.47;5043453;28;20057;-67
2022/09/21 11:43:46;;;;;;;0.20;0.20;;;;;;;21.34;49.29;101981.06;4991910;28;20528;-67
2022/09/21 11:47:04;;;;;;;0.10;0.10;;;;;;;21.05;49.21;101984.22;5010150;28;20468;-67
2022/09/21 11:49:57;;;;;;;0.15;0.15;;;;;;;20.95;50.39;101974.81;5011084;28;20455;-66
2022/09/21 11:52:35;;;;;;;0.10;0.10;;;;;;;20.71;51.69;101980.31;4992176;28;20048;-67